Flight Track Log - Related Links

Times and Time Zones

All times are in EDT time to prevent confusion due to time zone crossing. See the DAL268 flight status page for this flight to view local times or setup timezone preferences in your user account.

Time Position Orientation Groundspeed Altitude Reporting Facility
EDT Latitude Longitude Course Direction KTS MPH feet Rate Location/Type
Sat 06:47:47 PM 33.6333 -84.3333 64° Northeast 231 266 2,800  Level Atlanta TRACON
Sat 06:48:47 PM 33.6333 -84.2667 90° East 236 272 6,300 2,900 Climbing Atlanta TRACON
Sat 06:49:00 PM 33.7145 -84.0199 101° East  Level FlightAware Approximate
Sat 06:49:47 PM 33.6333 -84.1833 90° East 258 297 8,600  Level Atlanta TRACON
Sat 06:50:00 PM 33.6922 -83.8859 101° East  Level FlightAware Approximate
Sat 06:50:46 PM 33.6336 -84.0911 90° East 277 319 10,500  Level Atlanta Center
Sat 06:51:00 PM 33.6698 -83.7519 101° East  Level FlightAware Approximate
Sat 06:51:46 PM 33.6378 -83.9864 87° East 289 333 12,000  Level Atlanta Center
Sat 06:52:00 PM 33.6558 -83.6192 64° Northeast  Level FlightAware Approximate
Sat 06:52:46 PM 33.6458 -83.8867 84° East 327 376 13,300  Level Atlanta Center
Sat 06:53:46 PM 33.6542 -83.7617 85° East 354 407 14,900 1,650 Climbing Atlanta Center
Sat 06:54:46 PM 33.6642 -83.6344 85° East 373 429 16,600 1,950 Climbing Atlanta Center
Sat 06:55:46 PM 33.7117 -83.5144 65° Northeast 378 435 18,800 1,650 Climbing Atlanta Center
Sat 06:56:46 PM 33.7633 -83.3917 63° Northeast 401 461 19,900 1,350 Climbing Atlanta Center
Sat 06:57:46 PM 33.8128 -83.2661 65° Northeast 413 475 21,500 1,450 Climbing Atlanta Center
Sat 06:58:46 PM 33.8597 -83.1408 66° East 413 475 22,800 1,300 Climbing Atlanta Center
Sat 06:59:46 PM 33.8858 -83.0028 77° East 413 475 24,100 1,000 Climbing Atlanta Center
Sat 07:00:46 PM 33.9011 -82.8425 83° East 424 488 24,800 850 Climbing Atlanta Center
Sat 07:01:46 PM 33.9164 -82.6919 83° East 441 507 25,800 950 Climbing Atlanta Center
Sat 07:02:46 PM 33.9292 -82.5417 84° East 446 513 26,700 950 Climbing Atlanta Center
Sat 07:03:46 PM 33.9419 -82.3911 84° East 453 521 27,700 800 Climbing Atlanta Center
Sat 07:04:46 PM 33.9586 -82.2531 82° East 458 527 28,300 700 Climbing Atlanta Center
Sat 07:05:46 PM 34.0192 -82.1164 62° Northeast 453 521 29,100 800 Climbing Atlanta Center
Sat 07:06:46 PM 34.0817 -81.9797 61° Northeast 453 521 29,900 700 Climbing Atlanta Center
Sat 07:07:46 PM 34.1481 -81.8425 60° Northeast 460 529 30,500 650 Climbing Atlanta Center
Sat 07:08:46 PM 34.2125 -81.7053 60° Northeast 466 536 31,200 850 Climbing Atlanta Center
Sat 07:09:46 PM 34.2767 -81.5678 61° Northeast 466 536 32,200 650 Climbing Atlanta Center
Sat 07:10:46 PM 34.3406 -81.4325 60° Northeast 466 536 32,500 400 Climbing Atlanta Center
Sat 07:11:46 PM 34.4103 -81.2792 61° Northeast 466 536 33,000 250 Climbing Atlanta Center
Sat 07:12:46 PM 34.4719 -81.1461 61° Northeast 460 529 33,000  Level Atlanta Center
Sat 07:13:46 PM 34.5353 -81.0106 60° Northeast 462 532 33,000  Level Atlanta Center
Sat 07:14:46 PM 34.5908 -80.8922 60° Northeast 455 524 33,000  Level Atlanta Center
Sat 07:15:46 PM 34.6519 -80.7511 62° Northeast 455 524 33,000  Level Atlanta Center
Sat 07:16:46 PM 34.7150 -80.6172 60° Northeast 455 524 33,000  Level Atlanta Center
Sat 07:18:25 PM 34.8139 -80.3933 62° Northeast 460 529 33,000  Level Washington Center
Sat 07:19:28 PM 34.8756 -80.2628 60° Northeast 448 516 33,000  Level Washington Center
Sat 07:20:25 PM 34.9375 -80.1169 63° Northeast 443 510 33,000  Level Washington Center
Sat 07:21:26 PM 34.9939 -80.0008 59° Northeast 443 510 33,000  Level Washington Center
Sat 07:22:26 PM 35.0511 -79.8644 63° Northeast 443 510 33,000  Level Washington Center
Sat 07:23:26 PM 35.1142 -79.7308 60° Northeast 448 516 33,000  Level Washington Center
Sat 07:24:27 PM 35.1753 -79.5917 62° Northeast 448 516 33,000  Level Washington Center
Sat 07:25:25 PM 35.2361 -79.4547 61° Northeast 448 516 33,000  Level Washington Center
Sat 07:26:25 PM 35.2947 -79.3200 62° Northeast 448 516 33,000  Level Washington Center
Sat 07:27:26 PM 35.3553 -79.1803 62° Northeast 448 516 33,000  Level Washington Center
Sat 07:28:26 PM 35.4133 -79.0478 62° Northeast 443 510 33,000  Level Washington Center
Sat 07:29:26 PM 35.4717 -78.9128 62° Northeast 443 510 33,000  Level Washington Center
Sat 07:30:27 PM 35.5294 -78.7797 62° Northeast 443 510 33,000  Level Washington Center
Sat 07:31:27 PM 35.5939 -78.6214 63° Northeast 449 517 33,000  Level Washington Center
Sat 07:32:25 PM 35.6683 -78.4914 55° Northeast 449 517 33,000  Level Washington Center
Sat 07:33:25 PM 35.7564 -78.3794 46° Northeast 449 517 33,000  Level Washington Center
Sat 07:34:25 PM 35.8422 -78.2747 45° Northeast 444 511 33,000  Level Washington Center
Sat 07:35:26 PM 35.9322 -78.1675 44° Northeast 439 505 33,000  Level Washington Center
Sat 07:36:27 PM 36.0222 -78.0575 45° Northeast 439 505 33,000  Level Washington Center
Sat 07:37:25 PM 36.1119 -77.9472 45° Northeast 450 518 33,000  Level Washington Center
Sat 07:38:26 PM 36.2019 -77.8367 45° Northeast 450 518 33,000  Level Washington Center
Sat 07:39:25 PM 36.2914 -77.7258 45° Northeast 450 518 33,000  Level Washington Center
Sat 07:40:26 PM 36.3808 -77.6197 44° Northeast 444 511 33,000  Level Washington Center
Sat 07:41:28 PM 36.4556 -77.5211 47° Northeast 444 511 33,000  Level Washington Center
Sat 07:42:25 PM 36.5469 -77.4094 44° Northeast 444 511 33,000  Level Washington Center
Sat 07:43:27 PM 36.6322 -77.3003 46° Northeast 444 511 33,000  Level Washington Center
Sat 07:44:25 PM 36.7150 -77.1853 48° Northeast 444 511 33,000  Level Washington Center
Sat 07:45:25 PM 36.7419 -77.0383 77° East 422 486 33,000  Level Washington Center
Sat 07:46:26 PM 36.7644 -76.8856 80° East 427 491 33,000  Level Washington Center
Sat 07:47:25 PM 36.7808 -76.7303 82° East 438 504 33,000  Level Washington Center
Sat 07:48:25 PM 36.7986 -76.5803 82° East 443 510 33,000  Level Washington Center
Sat 07:49:26 PM 36.8375 -76.4328 72° East 443 510 33,000  Level Washington Center
Sat 07:50:27 PM 36.9050 -76.2803 61° Northeast 443 510 33,000  Level Washington Center
Sat 07:51:28 PM 36.9767 -76.1561 54° Northeast 443 510 33,000  Level Washington Center
Sat 07:52:25 PM 37.0586 -76.0369 49° Northeast 448 516 33,000  Level Washington Center
Sat 07:53:25 PM 37.1361 -75.9122 52° Northeast 448 516 33,000  Level Washington Center
Sat 07:54:26 PM 37.2114 -75.7875 53° Northeast 448 516 33,000  Level Washington Center
Sat 07:55:25 PM 37.2931 -75.6703 49° Northeast 448 516 33,000  Level Washington Center
Sat 07:56:25 PM 37.4056 -75.6153 21° North 426 490 33,000  Level Washington Center
Sat 07:57:25 PM 37.5203 -75.5708 17° North 421 484 33,000  Level Washington Center
Sat 07:58:28 PM 37.6350 -75.5264 17° North 421 484 33,000  Level Washington Center
Sat 07:59:25 PM 37.7517 -75.4789 18° North 426 490 33,000  Level Washington Center
Sat 08:00:27 PM 37.8622 -75.4286 20° North 426 490 33,000  Level Washington Center
Sat 08:01:25 PM 37.9769 -75.3811 18° North 426 490 33,000  Level Washington Center
Sat 08:02:27 PM 38.0956 -75.3331 18° North 426 490 33,000  Level Washington Center
Sat 08:03:25 PM 38.2103 -75.2825 19° North 426 490 33,000  Level Washington Center
Sat 08:04:25 PM 38.3019 -75.2425 19° North 426 490 33,000  Level Washington Center
Sat 08:05:26 PM 38.4267 -75.1861 20° North 426 490 33,000  Level Washington Center
Sat 08:06:26 PM 38.5433 -75.1297 21° North 431 496 33,000  Level Washington Center
Sat 08:07:25 PM 38.6619 -75.0786 19° North 431 496 33,000  Level Washington Center
Sat 08:08:25 PM 38.7722 -75.0111 26° Northeast 437 503 33,000 -50 Level Washington Center
Sat 08:09:26 PM 38.8822 -74.9408 26° Northeast 437 503 32,900  Descending Washington Center
Sat 08:10:26 PM 38.9839 -74.8733 27° Northeast 423 487 33,000 -50 Climbing Washington Center
Sat 08:11:27 PM 39.0858 -74.8056 27° Northeast 412 474 32,800 -958 Descending Washington Center
Sat 08:12:25 PM 39.1747 -74.7189 37° Northeast 401 461 31,100 -2,319 Descending Washington Center
Sat 08:13:26 PM 39.2697 -74.6131 41° Northeast 401 461 28,200 -2,508 Descending Washington Center
Sat 08:14:27 PM 39.3503 -74.5233 41° Northeast 394 453 26,000 -1,815 Descending Washington Center
Sat 08:15:25 PM 39.4286 -74.4361 41° Northeast 383 441 24,600 -1,210 Descending Washington Center
Sat 08:16:26 PM 39.4567 -74.3203 73° East 331 381 23,600 -934 Descending Washington Center
Sat 08:17:27 PM 39.3869 -74.2356 137° Southeast 262 302 22,700 -958 Descending Washington Center
Sat 08:18:25 PM 39.2894 -74.2831 201° Southwest 233 268 21,700 -1,017 Descending Washington Center
Sat 08:19:25 PM 39.2092 -74.3594 216° Southwest 285 328 20,700 -900 Descending Washington Center
Sat 08:20:25 PM 39.1642 -74.4644 241° Southwest 306 352 19,900 -765 Descending Washington Center
Sat 08:21:07 PM 39.1839 -74.5422 288° West 267 307 19,400 -780 Descending New York Center
Sat 08:22:05 PM 39.2731 -74.5603 351° North 211 243 18,600 -744 Descending New York Center
Sat 08:23:08 PM 39.3461 -74.4944 35° Northeast 223 257 17,900 -298 Descending New York Center
Sat 08:24:06 PM 39.4169 -74.4256 37° Northeast 268 308 18,000 50 Climbing New York Center
Sat 08:25:07 PM 39.4881 -74.3567 37° Northeast 304 350 18,000  Level New York Center
Sat 08:26:05 PM 39.5608 -74.2903 35° Northeast 314 361 18,000  Level New York Center
Sat 08:27:06 PM 39.6211 -74.2258 39° Northeast 319 367 18,000 -198 Level New York Center
Sat 08:28:06 PM 39.6878 -74.1536 40° Northeast 314 361 17,600 -793 Descending New York Center
Sat 08:29:07 PM 39.7589 -74.0733 41° Northeast 304 350 16,400 -1,339 Descending New York Center
Sat 08:30:07 PM 39.8211 -74.0089 38° Northeast 292 336 14,900 -1,190 Descending New York Center
Sat 08:31:08 PM 39.8831 -73.9603 31° Northeast 287 330 14,000 -559 Descending New York Center
Sat 08:32:05 PM 39.9508 -73.9119 29° Northeast 281 323 13,800 -356 Descending New York Center
Sat 08:33:06 PM 40.0189 -73.8633 29° Northeast 260 299 13,300 -492 Descending New York Center
Sat 08:34:07 PM 40.0817 -73.8581 North 228 262 12,800 -555 Descending New York Center
Sat 08:35:05 PM 40.1067 -73.9381 292° West 182 209 12,200 -555 Descending New York Center
Sat 08:36:06 PM 40.0531 -73.9897 216° Southwest 138 159 11,700 -541 Descending New York Center
Sat 08:37:07 PM 40.0211 -73.9367 128° Southeast 90 104 11,100 -347 Descending New York Center
Sat 08:38:07 PM 40.0667 -73.8683 49° Northeast 158 182 11,000 -600 Descending New York Center
Sat 08:39:07 PM 40.1100 -73.8078 47° Northeast 207 238 9,900 -1,271 Descending New York Center
Sat 08:40:05 PM 40.1492 -73.7472 50° Northeast 222 255 8,500 -1,500 Descending New York Center
Sat 08:40:59 PM 40.2000 -73.7500 358° North 240 276 7,100 -1,474 Descending New York TRACON
Sat 08:41:59 PM 40.2333 -73.8333 298° West 239 275 5,700 -1,100 Descending New York TRACON
Sat 08:42:59 PM 40.2667 -73.9000 303° West 236 272 4,900 -900 Descending New York TRACON
Sat 08:43:59 PM 40.3000 -73.9667 303° West 222 255 3,900 -950 Descending New York TRACON
Sat 08:44:59 PM 40.3500 -74.0167 323° Northwest 214 246 3,000 -450 Descending New York TRACON
Sat 08:45:59 PM 40.4000 -74.0000 14° North 170 196 3,000  Level New York TRACON
Sat 08:46:59 PM 40.4500 -73.9833 14° North 173 199 3,000  Level New York TRACON
Sat 08:47:59 PM 40.5000 -73.9833 360° North 175 201 3,000 -150 Level New York TRACON
Sat 08:48:59 PM 40.5333 -73.9500 37° Northeast 166 191 2,700 -450 Descending New York TRACON
Sat 08:49:59 PM 40.5667 -73.9333 21° North 162 186 2,100 -650 Descending New York TRACON
Sat 08:50:59 PM 40.6000 -73.9000 37° Northeast 158 182 1,400 -650 Descending New York TRACON
Sat 08:51:59 PM 40.6500 -73.8667 27° Northeast 146 168 800 -400 Descending New York TRACON
Sat 08:52:59 PM 40.6667 -73.8333 57° Northeast 144 166 600 -200 Descending New York TRACON

Login

Don't have an account? Register now (free) for customized features, flight alerts, and more!